Latest Weather Observations for Minnipa RS

IDS60801

Issued at 4:31 pm CST Monday 31 August 2015 (issued every 30 minutes, with the page automatically refreshed every 10 minutes)

About weather observations | Map of weather stations | Latest weather observations for SA | Other Formats
Station Details ID: 018195 Name: MINNIPA PIRSA Lat: -32.84 Lon: 135.15 Height: 165.0 m
Data from the previous 72 hours. | See also: Recent months at Minnipa RS
Date/Time
CST
Temp
°C
App
Temp
°C
Dew
Point
Rel
Hum
%
Delta-T
°C
Wind Press
QNH
hPa
Press
MSL
hPa
Rain
since 9 am
mm
Dir
 
Spd
km/h
Gust
km/h
Spd
kts
Gust
kts
31/04:30pm 21.2 19.4 11.0 52 5.7 W 11 17 6 9 1015.2 - 0.0
31/04:00pm 20.7 18.4 11.6 56 5.1 WNW 15 20 8 11 1015.4 - 0.0
31/03:30pm 20.6 17.9 10.4 52 5.6 WNW 15 26 8 14 1015.5 - 0.0
31/03:00pm 21.4 18.8 9.3 46 6.5 NW 13 24 7 13 1015.7 1015.8 0.0
31/02:30pm 20.6 17.5 10.4 52 5.6 WNW 17 22 9 12 1016.1 - 0.0
31/02:00pm 21.3 18.1 9.9 48 6.2 NW 17 20 9 11 1016.3 - 0.0
31/01:30pm 20.5 16.9 8.5 46 6.3 NNW 17 24 9 13 1016.8 - 0.0
31/01:00pm 19.6 15.5 8.0 47 6.0 NW 19 24 10 13 1017.2 - 0.0
31/12:30pm 19.3 15.0 7.7 47 6.0 NNW 20 28 11 15 1017.7 - 0.0
31/12:00pm 19.9 15.0 8.3 47 6.1 NNW 24 32 13 17 1018.1 1018.1 0.0
31/11:30am 19.1 13.9 7.2 46 6.1 N 24 35 13 19 1018.6 - 0.0
31/11:00am 19.1 14.4 9.3 53 5.2 NNW 24 32 13 17 1019.0 - 0.0
31/10:30am 18.5 13.9 6.4 45 6.1 N 20 28 11 15 1019.1 - 0.0
31/10:00am 16.8 11.3 6.0 49 5.3 N 24 32 13 17 1019.2 - 0.0
31/09:30am 15.5 9.3 4.5 48 5.2 N 26 32 14 17 1019.2 - 0.0
31/09:00am 14.4 9.0 4.4 51 4.6 N 22 32 12 17 1019.3 1019.4 0.0
31/08:30am 12.7 7.3 4.4 57 3.8 N 22 26 12 14 1019.3 - 0.0
31/08:00am 11.5 5.8 3.0 56 3.7 N 22 30 12 16 1019.2 - 0.0
31/07:30am 10.6 4.4 2.4 57 3.5 NNE 24 30 13 16 1018.9 - 0.0
31/07:00am 10.3 4.1 1.9 56 3.6 N 24 30 13 16 1018.8 - 0.0
31/06:30am 10.5 4.3 1.9 55 3.7 NNE 24 30 13 16 1018.7 - 0.0
31/06:00am 10.6 4.3 1.4 53 3.9 NNE 24 28 13 15 1018.6 1018.6 0.0
31/05:30am 10.7 4.8 1.8 54 3.8 NNE 22 28 12 15 1018.8 - 0.0
31/05:00am 10.3 4.8 1.9 56 3.6 NNE 20 24 11 13 1018.6 - 0.0
31/04:30am 9.5 4.0 1.9 59 3.2 NNE 20 24 11 13 1018.5 - 0.0
31/04:00am 9.8 4.3 1.9 58 3.3 NE 20 24 11 13 1018.7 - 0.0
31/03:30am 9.6 4.1 2.0 59 3.2 NE 20 24 11 13 1018.9 - 0.0
31/03:00am 8.5 3.0 2.1 64 2.7 NE 20 24 11 13 1019.0 1019.1 0.0
31/02:30am 8.6 2.7 2.0 63 2.8 NE 22 24 12 13 1019.2 - 0.0
31/02:00am 8.3 2.4 1.9 64 2.7 NE 22 24 12 13 1019.7 - 0.0
31/01:30am 8.6 2.7 1.7 62 2.9 NE 22 26 12 14 1019.9 - 0.0
31/01:00am 8.5 3.0 1.9 63 2.8 NE 20 24 11 13 1020.0 - 0.0
31/12:30am 8.9 3.0 2.0 62 2.9 NE 22 24 12 13 1020.0 - 0.0
31/12:00am 9.0 3.6 2.3 63 2.8 NE 20 22 11 12 1020.2 1020.3 0.0
 
Date/Time
CST
Temp
°C
App
Temp
°C
Dew
Point
Rel
Hum
%
Delta-T
°C
Wind Press
QNH
hPa
Press
MSL
hPa
Rain
since 9 am
mm
Dir
 
Spd
km/h
Gust
km/h
Spd
kts
Gust
kts
30/11:30pm 9.1 3.7 2.2 62 2.9 NE 20 24 11 13 1020.4 - 0.0
30/11:00pm 9.3 3.9 2.4 62 2.9 NE 20 22 11 12 1020.7 - 0.0
30/10:30pm 8.8 3.6 2.4 64 2.7 NE 19 20 10 11 1021.1 - 0.0
30/10:00pm 10.2 4.8 2.3 58 3.4 NE 20 24 11 13 1021.3 - 0.0
30/09:30pm 9.6 4.4 2.7 62 3.0 NE 19 22 10 12 1021.5 - 0.0
30/09:00pm 9.3 4.2 3.1 65 2.7 NE 19 22 10 12 1021.4 1021.5 0.0
30/08:30pm 9.5 4.4 3.3 65 2.7 NE 19 22 10 12 1021.6 - 0.0
30/08:00pm 9.3 4.6 3.3 66 2.6 NE 17 20 9 11 1021.6 - 0.0
30/07:30pm 8.3 4.0 3.4 71 2.1 NE 15 17 8 9 1021.2 - 0.0
30/07:00pm 9.1 5.3 3.9 70 2.3 NE 13 15 7 8 1020.9 - 0.0
30/06:30pm 9.7 6.4 4.7 71 2.3 ENE 11 13 6 7 1020.5 - 0.0
30/06:00pm 13.4 10.9 6.5 63 3.3 ENE 9 11 5 6 1020.3 1020.4 0.0
30/05:30pm 15.0 12.5 6.6 57 4.1 NE 9 11 5 6 1020.1 - 0.0
30/05:00pm 15.6 11.9 4.3 47 5.3 NNE 13 17 7 9 1020.3 - 0.0
30/04:30pm 17.5 13.0 1.9 35 7.1 NNE 15 19 8 10 1020.5 - 0.0
30/04:00pm 17.7 12.8 2.1 35 7.1 N 17 24 9 13 1020.9 - 0.0
30/03:30pm 18.1 13.8 3.2 37 7.0 N 15 20 8 11 1021.2 - 0.0
30/03:00pm 18.2 14.5 4.7 41 6.5 N 13 20 7 11 1021.3 1021.4 0.0
30/02:30pm 17.8 13.1 2.9 37 6.9 N 17 22 9 12 1021.5 - 0.0
30/02:00pm 17.8 12.9 4.0 40 6.5 N 19 26 10 14 1021.9 - 0.0
30/01:30pm 17.4 12.8 5.4 45 5.8 N 19 28 10 15 1022.3 - 0.0
30/01:00pm 17.0 12.2 4.7 44 5.9 N 19 24 10 13 1023.0 - 0.0
30/12:30pm 16.9 12.0 3.9 42 6.1 N 19 24 10 13 1023.6 - 0.0
30/12:00pm 17.0 12.6 6.5 50 5.2 NNE 19 26 10 14 1023.9 1023.9 0.0
30/11:30am 16.4 11.6 4.4 45 5.7 N 19 30 10 16 1024.3 - 0.0
30/11:00am 15.9 11.0 4.9 48 5.2 N 20 30 11 16 1024.7 - 0.0
30/10:30am 14.9 9.5 4.6 50 4.8 NNE 22 28 12 15 1024.9 - 0.0
30/10:00am 13.9 9.2 5.0 55 4.2 NNE 19 26 10 14 1025.0 - 0.0
30/09:30am 12.1 7.6 5.9 66 2.9 NNE 19 24 10 13 1025.3 - 0.0
30/09:00am 10.6 6.3 5.4 70 2.4 NNE 17 22 9 12 1025.3 1025.4 0.0
30/08:30am 9.3 5.1 5.7 78 1.7 NNE 17 22 9 12 1025.4 - 0.0
30/08:00am 7.4 2.6 4.7 83 1.2 NE 19 22 10 12 1024.8 - 0.0
30/07:30am 5.7 0.6 3.9 88 0.8 ENE 20 22 11 12 1024.5 - 0.0
30/07:00am 4.9 -0.7 3.4 90 0.6 ENE 22 24 12 13 1024.2 - 0.0
30/06:30am 4.9 -0.7 3.2 89 0.7 ENE 22 24 12 13 1023.7 - 0.0
30/06:00am 5.2 -0.4 3.4 88 0.8 ENE 22 24 12 13 1023.7 1023.8 0.0
30/05:30am 4.9 -0.4 3.1 88 0.7 ENE 20 24 11 13 1023.7 - 0.0
30/05:00am 5.2 -0.4 3.2 87 0.8 ENE 22 24 12 13 1023.7 - 0.0
30/04:30am 5.3 -0.3 3.2 86 0.9 ENE 22 24 12 13 1023.7 - 0.0
30/04:00am 5.3 -0.4 3.0 85 1.0 ENE 22 24 12 13 1024.1 - 0.0
30/03:30am 5.4 -0.3 2.8 83 1.1 ENE 22 26 12 14 1024.1 - 0.0
30/03:00am 5.6 -0.1 2.8 82 1.2 ENE 22 24 12 13 1024.4 1024.5 0.0
30/02:30am 5.6 -0.1 2.6 81 1.2 ENE 22 24 12 13 1024.7 - 0.0
30/02:00am 5.4 -0.3 2.8 83 1.1 ENE 22 24 12 13 1025.0 - 0.0
30/01:30am 5.9 0.5 2.7 80 1.3 ENE 20 24 11 13 1025.3 - 0.0
30/01:00am 6.7 1.0 3.1 78 1.5 ENE 22 24 12 13 1025.5 - 0.0
30/12:30am 7.1 1.8 3.2 76 1.7 E 20 24 11 13 1025.7 - 0.0
30/12:00am 6.9 1.7 3.3 78 1.5 ENE 20 22 11 12 1025.9 1026.0 0.0
 
Date/Time
CST
Temp
°C
App
Temp
°C
Dew
Point
Rel
Hum
%
Delta-T
°C
Wind Press
QNH
hPa
Press
MSL
hPa
Rain
since 9 am
mm
Dir
 
Spd
km/h
Gust
km/h
Spd
kts
Gust
kts
29/11:30pm 7.1 1.9 3.7 79 1.5 ENE 20 24 11 13 1026.0 - 0.0
29/11:00pm 7.5 2.4 3.9 78 1.6 ENE 20 26 11 14 1026.2 - 0.0
29/10:30pm 8.5 2.6 3.9 73 2.0 E 24 33 13 18 1026.3 - 0.0
29/10:00pm 8.4 3.0 4.4 76 1.8 E 22 30 12 16 1026.3 - 0.0
29/09:30pm 8.2 3.4 4.6 78 1.6 E 19 24 10 13 1026.3 - 0.0
29/09:00pm 8.8 4.1 5.2 78 1.6 ESE 19 24 10 13 1026.3 1026.4 0.0
29/08:30pm 9.6 4.8 5.6 76 1.8 ESE 20 26 11 14 1026.1 - 0.0
29/08:00pm 10.1 5.8 5.1 71 2.3 ESE 17 20 9 11 1025.8 - 0.0
29/07:30pm 10.2 5.9 5.4 72 2.2 ESE 17 20 9 11 1025.6 - 0.0
29/07:00pm 10.0 6.0 5.0 71 2.3 ESE 15 17 8 9 1025.3 - 0.0
29/06:30pm 9.8 6.2 5.2 73 2.1 ESE 13 15 7 8 1025.1 - 0.0
29/06:00pm 11.7 8.2 5.6 66 2.8 ESE 13 15 7 8 1025.0 1025.1 0.0
29/05:30pm 14.0 10.9 5.4 56 4.1 ESE 11 15 6 8 1024.8 - 0.0
29/05:00pm 15.2 11.7 5.4 52 4.7 SE 13 19 7 10 1024.7 - 0.0
29/04:30pm 15.7 12.1 5.0 49 5.1 SE 13 19 7 10 1024.7 - 0.0
29/04:00pm 16.2 12.9 4.3 45 5.6 SE 11 20 6 11 1024.7 - 0.0
29/03:30pm 16.2 12.6 2.9 41 6.1 ESE 11 15 6 8 1024.9 - 0.0
29/03:00pm 16.5 14.2 5.5 48 5.3 ENE 7 9 4 5 1025.0 1025.1 0.0
29/02:30pm 16.7 13.9 3.4 41 6.2 SSE 7 11 4 6 1025.3 - 0.0
29/02:00pm 16.2 13.4 3.3 42 6.0 E 7 13 4 7 1025.5 - 0.0
29/01:30pm 15.4 13.2 5.3 51 4.8 SSE 6 9 3 5 1025.8 - 0.0
29/01:00pm 16.1 13.6 4.8 47 5.4 ENE 7 13 4 7 1026.4 - 0.0
29/12:30pm 15.5 12.1 2.0 40 6.0 ENE 9 15 5 8 1026.8 - 0.0
29/12:00pm 15.6 12.3 4.6 48 5.2 ENE 11 17 6 9 1027.3 1027.4 0.0
29/11:30am 15.0 11.4 5.2 52 4.7 E 13 19 7 10 1027.6 - 0.0
29/11:00am 14.4 11.5 6.5 59 3.8 NE 11 15 6 8 1027.9 - 0.0
29/10:30am 13.4 9.6 6.0 61 3.5 NE 15 20 8 11 1028.0 - 0.0
29/10:00am 12.3 7.8 6.8 69 2.7 ENE 20 26 11 14 1027.9 - 0.0
29/09:30am 10.7 5.6 6.1 73 2.2 ENE 22 30 12 16 1027.9 - 0.0
29/09:00am 9.4 4.3 5.8 78 1.6 ENE 22 30 12 16 1027.9 1028.0 0.2
29/08:30am 8.0 3.2 5.5 84 1.1 ENE 20 28 11 15 1027.9 - 0.2
29/08:00am 6.8 1.9 5.0 88 0.8 ENE 20 28 11 15 1027.6 - 0.2
29/07:30am 6.0 1.2 4.5 90 0.7 E 19 24 10 13 1027.3 - 0.2
29/07:00am 5.6 0.8 4.4 92 0.5 E 19 22 10 12 1027.0 - 0.2
29/06:30am 5.9 0.9 4.5 91 0.6 ENE 20 24 11 13 1026.7 - 0.2
29/06:00am 6.1 1.3 4.7 91 0.6 E 19 22 10 12 1026.5 1026.6 0.2
29/05:30am 6.5 1.8 5.0 90 0.7 E 19 22 10 12 1026.4 - 0.2
29/05:00am 6.8 2.1 5.3 90 0.7 ENE 19 22 10 12 1026.4 - 0.2
29/04:30am 7.0 3.2 5.6 91 0.6 E 15 20 8 11 1026.4 - 0.2
29/04:00am 6.8 2.9 5.4 91 0.6 E 15 19 8 10 1026.4 - 0.2
29/03:30am 6.8 2.9 5.3 90 0.7 E 15 19 8 10 1026.7 - 0.2
29/03:00am 7.2 2.6 5.7 90 0.7 ENE 19 22 10 12 1026.8 1026.9 0.2
29/02:30am 7.4 3.6 5.9 90 0.7 E 15 19 8 10 1027.1 - 0.2
29/02:00am 6.9 2.7 5.5 91 0.6 E 17 19 9 10 1027.5 - 0.2
29/01:30am 6.8 2.9 5.3 90 0.7 E 15 17 8 9 1027.8 - 0.2
29/01:00am 7.2 3.0 5.5 89 0.8 E 17 20 9 11 1027.8 - 0.2
29/12:30am 7.4 2.8 5.7 89 0.8 E 19 22 10 12 1027.8 - 0.2
29/12:00am 7.2 2.6 5.8 91 0.6 E 19 24 10 13 1027.9 1028.0 0.2
 
Date/Time
CST
Temp
°C
App
Temp
°C
Dew
Point
Rel
Hum
%
Delta-T
°C
Wind Press
QNH
hPa
Press
MSL
hPa
Rain
since 9 am
mm
Dir
 
Spd
km/h
Gust
km/h
Spd
kts
Gust
kts
28/11:30pm 6.9 3.1 5.7 92 0.5 ESE 15 19 8 10 1028.2 - 0.2
28/11:00pm 6.8 3.3 5.6 92 0.5 ESE 13 15 7 8 1028.4 - 0.2
28/10:30pm 6.8 3.0 5.6 92 0.5 ESE 15 17 8 9 1028.3 - 0.2
28/10:00pm 7.3 3.5 5.9 91 0.6 ESE 15 19 8 10 1028.2 - 0.2
28/09:30pm 7.8 4.1 6.1 89 0.8 ESE 15 19 8 10 1028.1 - 0.2
28/09:00pm 8.5 4.1 6.6 88 0.9 ESE 19 22 10 12 1027.9 1028.0 0.2
28/08:30pm 8.7 4.7 6.8 88 0.9 SE 17 22 9 12 1027.7 - 0.2
28/08:00pm 7.9 4.5 6.0 88 0.9 SE 13 17 7 9 1027.4 - 0.2
28/07:30pm 8.0 4.5 5.6 85 1.1 SE 13 15 7 8 1027.2 - 0.2
28/07:00pm 8.2 4.6 5.1 81 1.4 SE 13 13 7 7 1026.9 - 0.2
28/06:30pm 8.6 5.4 5.2 79 1.5 SE 11 13 6 7 1026.7 - 0.2
28/06:00pm 10.0 6.9 5.4 73 2.1 SE 11 13 6 7 1026.3 1026.4 0.2
28/05:30pm 12.2 8.6 5.1 62 3.3 SE 13 15 7 8 1026.2 - 0.2
28/05:00pm 13.9 10.2 4.5 53 4.4 ESE 13 17 7 9 1026.1 - 0.2

Other Formats:

Comma delimited format used in spreadsheet applications
http://www.bom.gov.au/fwo/IDS60801/IDS60801.95662.axf

JavaScript Object Notation format (JSON) in row-major order
http://www.bom.gov.au/fwo/IDS60801/IDS60801.95662.json